Time;durP1;ratioP1;P1;durP2;ratioP2;P2;SDS_P1;SDS_P2;PMS_P1;PMS_P2;Temp;Humidity;BMP_temperature;BMP_pressure;BME280_temperature;BME280_humidity;BME280_pressure;Samples;Min_cycle;Max_cycle;Signal;HPM_P1;HPM_P2
2023/10/24 00:01:03;;;;;;;12.20;7.93;;;;;;;24.23;44.72;99371.19;4483638;32;34211;-64
2023/10/24 00:03:31;;;;;;;14.15;8.10;;;;;;;24.24;44.64;99390.03;4482993;32;33725;-64
2023/10/24 00:05:59;;;;;;;11.15;7.87;;;;;;;24.25;44.54;99386.25;4483479;32;33861;-64
2023/10/24 00:08:26;;;;;;;12.57;8.38;;;;;;;24.24;44.58;99389.19;4483622;32;33671;-64
2023/10/24 00:11:01;;;;;;;12.80;8.63;;;;;;;24.23;44.66;99377.47;4483569;32;34249;-64
2023/10/24 00:13:29;;;;;;;12.82;8.65;;;;;;;24.25;44.62;99369.03;4483775;32;33327;-64
2023/10/24 00:15:57;;;;;;;11.52;7.65;;;;;;;24.24;44.61;99367.38;4482770;32;33741;-64
2023/10/24 00:18:25;;;;;;;18.25;7.87;;;;;;;24.24;44.64;99368.22;4483293;32;33948;-63
2023/10/24 00:20:53;;;;;;;13.40;7.47;;;;;;;24.24;44.57;99349.12;4483277;32;34713;-63
2023/10/24 00:23:20;;;;;;;13.52;7.47;;;;;;;24.24;44.65;99349.12;4483577;32;33855;-64
2023/10/24 00:25:48;;;;;;;14.55;7.80;;;;;;;24.24;44.63;99346.41;4482343;32;33781;-64
2023/10/24 00:28:15;;;;;;;12.57;8.10;;;;;;;24.27;44.50;99339.66;4482292;32;33873;-64
2023/10/24 00:30:43;;;;;;;12.00;7.43;;;;;;;24.25;44.60;99337.19;4483386;32;34164;-64
2023/10/24 00:33:11;;;;;;;11.15;8.27;;;;;;;24.23;44.55;99322.94;4483300;32;33802;-64
2023/10/24 00:35:39;;;;;;;12.65;7.82;;;;;;;24.25;44.35;99317.25;4483330;32;33737;-64
2023/10/24 00:38:06;;;;;;;11.07;6.78;;;;;;;24.24;44.28;99318.31;4483339;32;34012;-64
2023/10/24 00:40:34;;;;;;;9.02;6.45;;;;;;;24.24;44.08;99310.13;4483238;32;33896;-64
2023/10/24 00:43:03;;;;;;;19.27;7.18;;;;;;;24.22;44.02;99302.22;4483218;32;33995;-64
2023/10/24 00:45:32;;;;;;;13.25;6.55;;;;;;;24.22;43.85;99294.03;4456656;32;33740;-64
2023/10/24 00:47:59;;;;;;;10.05;6.03;;;;;;;24.22;43.79;99294.03;4468846;32;34723;-64
2023/10/24 00:50:27;;;;;;;14.32;5.87;;;;;;;24.23;43.81;99300.31;4494805;31;34241;-64
2023/10/24 00:52:55;;;;;;;10.45;6.55;;;;;;;24.21;43.89;99297.00;4483086;32;34400;-65
2023/10/24 00:55:22;;;;;;;10.77;6.18;;;;;;;24.20;43.93;99304.34;4482923;32;33815;-65
2023/10/24 00:57:50;;;;;;;10.35;6.57;;;;;;;24.21;43.69;99305.19;4481829;32;34048;-64
2023/10/24 01:00:18;;;;;;;11.20;6.20;;;;;;;24.21;43.83;99313.38;4481734;32;34124;-64
2023/10/24 01:02:45;;;;;;;12.60;6.00;;;;;;;24.20;43.78;99323.41;4481628;32;34010;-65
2023/10/24 01:05:13;;;;;;;10.45;5.75;;;;;;;24.19;43.71;99317.16;4481912;32;33953;-64
2023/10/24 01:07:41;;;;;;;9.93;5.32;;;;;;;24.19;43.71;99328.03;4468677;32;34074;-64
2023/10/24 01:10:09;;;;;;;9.88;5.20;;;;;;;24.19;43.57;99343.59;4482707;32;34117;-64
2023/10/24 01:12:37;;;;;;;11.45;5.40;;;;;;;24.19;43.62;99344.41;4468361;32;33733;-64
2023/10/24 01:15:06;;;;;;;10.23;5.50;;;;;;;24.18;43.44;99347.38;4482757;32;34720;-64
2023/10/24 01:17:33;;;;;;;12.65;5.47;;;;;;;24.17;43.46;99346.56;4485005;32;34817;-64
2023/10/24 01:20:02;;;;;;;7.90;5.05;;;;;;;24.18;43.55;99348.22;4484935;32;34005;-64
2023/10/24 01:22:29;;;;;;;11.27;5.10;;;;;;;24.17;43.43;99351.19;4485411;32;33306;-64
2023/10/24 01:24:57;;;;;;;7.85;5.00;;;;;;;24.17;43.31;99351.19;4485281;32;33498;-64
2023/10/24 01:27:24;;;;;;;12.43;5.75;;;;;;;24.15;43.20;99343.25;4484836;32;33729;-64
2023/10/24 01:29:52;;;;;;;9.32;4.97;;;;;;;24.15;43.26;99343.25;4483808;32;33742;-64
2023/10/24 01:32:29;;;;;;;10.07;5.05;;;;;;;24.14;43.14;99332.56;4484893;32;33795;-64
2023/10/24 01:34:57;;;;;;;11.82;5.10;;;;;;;24.16;43.00;99335.91;4485294;32;33611;-64
2023/10/24 01:37:24;;;;;;;9.70;4.70;;;;;;;24.15;43.07;99326.06;4484892;32;34933;-64
2023/10/24 01:39:52;;;;;;;7.30;4.87;;;;;;;24.13;42.96;99326.31;4485002;32;35035;-64
2023/10/24 01:42:20;;;;;;;6.75;4.60;;;;;;;24.13;43.01;99320.84;4483679;32;33217;-65
2023/10/24 01:44:47;;;;;;;8.98;5.18;;;;;;;24.14;43.04;99325.22;4484864;32;34023;-65
2023/10/24 01:47:15;;;;;;;7.78;4.60;;;;;;;24.12;43.11;99324.66;4484859;32;34898;-65
2023/10/24 01:49:42;;;;;;;8.77;5.32;;;;;;;24.12;43.11;99321.94;4485115;32;34197;-64
2023/10/24 01:52:10;;;;;;;7.72;4.72;;;;;;;24.12;43.07;99313.75;4484698;32;34449;-64
2023/10/24 01:54:38;;;;;;;7.93;4.72;;;;;;;24.15;43.07;99323.31;4484830;32;33796;-64
2023/10/24 01:57:06;;;;;;;8.93;4.22;;;;;;;24.13;43.21;99314.56;4484876;32;33805;-64
2023/10/24 01:59:33;;;;;;;8.45;4.90;;;;;;;24.11;43.23;99311.28;4484666;32;34306;-65
2023/10/24 02:02:01;;;;;;;8.30;5.28;;;;;;;24.11;43.13;99308.56;4484849;32;33572;-64
2023/10/24 02:04:29;;;;;;;8.55;5.00;;;;;;;24.11;43.00;99301.19;4484857;32;34580;-64
2023/10/24 02:06:58;;;;;;;7.93;4.70;;;;;;;24.11;43.01;99303.09;4484622;32;34924;-64
2023/10/24 02:09:27;;;;;;;7.35;4.22;;;;;;;24.11;42.91;99300.37;4484704;32;35079;-64
2023/10/24 02:11:55;;;;;;;8.23;4.50;;;;;;;24.10;42.91;99302.25;4484754;32;34568;-64
2023/10/24 02:14:23;;;;;;;8.10;4.37;;;;;;;24.10;42.75;99291.34;4484710;32;34724;-64
2023/10/24 02:16:51;;;;;;;7.40;3.97;;;;;;;24.11;42.82;99275.84;4485082;32;33774;-64
2023/10/24 02:19:18;;;;;;;6.35;4.47;;;;;;;24.08;42.90;99282.59;4484623;32;33955;-64
2023/10/24 02:21:46;;;;;;;8.40;4.53;;;;;;;24.07;42.88;99291.84;4483341;32;33251;-64
2023/10/24 02:24:13;;;;;;;7.05;4.22;;;;;;;24.07;42.81;99294.56;4484695;32;34737;-64
2023/10/24 02:26:41;;;;;;;8.23;4.07;;;;;;;24.07;42.70;99301.94;4484210;32;34814;-64
2023/10/24 02:29:08;;;;;;;6.05;3.90;;;;;;;24.07;42.71;99301.94;4484643;32;34367;-64
2023/10/24 02:31:36;;;;;;;9.50;3.95;;;;;;;24.07;42.63;99301.94;4484642;32;33719;-64
2023/10/24 02:34:04;;;;;;;7.60;3.95;;;;;;;24.06;42.62;99309.28;4484534;32;33630;-64
2023/10/24 02:36:32;;;;;;;8.27;4.03;;;;;;;24.05;42.66;99301.31;4484707;32;33994;-64
2023/10/24 02:38:59;;;;;;;8.00;4.65;;;;;;;24.06;42.83;99301.09;4484534;32;34895;-64
2023/10/24 02:41:27;;;;;;;6.70;3.60;;;;;;;24.05;42.62;99298.59;4484815;32;34218;-65
2023/10/24 02:43:55;;;;;;;6.00;3.65;;;;;;;24.05;42.56;99312.22;4484366;32;33472;-65
2023/10/24 02:46:25;;;;;;;7.12;3.95;;;;;;;24.04;42.45;99316.03;4484471;32;33529;-64
2023/10/24 02:48:53;;;;;;;7.57;4.30;;;;;;;24.04;42.47;99299.69;4484394;32;34770;-64
2023/10/24 02:51:20;;;;;;;9.20;3.97;;;;;;;24.03;42.44;99290.69;4484257;32;34641;-64
2023/10/24 02:53:48;;;;;;;8.63;4.10;;;;;;;24.03;42.42;99293.41;4484543;32;33872;-64
2023/10/24 02:56:15;;;;;;;7.93;4.30;;;;;;;24.02;42.35;99291.75;4484435;32;34095;-64
2023/10/24 02:58:43;;;;;;;6.93;3.62;;;;;;;24.02;42.39;99290.94;4484268;32;34216;-64
2023/10/24 03:01:11;;;;;;;7.60;4.20;;;;;;;24.01;42.45;99281.06;4484370;32;33733;-64
2023/10/24 03:03:38;;;;;;;8.10;4.03;;;;;;;24.02;42.40;99282.75;4484411;32;34700;-64
2023/10/24 03:06:17;;;;;;;6.45;3.83;;;;;;;24.00;42.41;99260.34;4484240;32;33893;-64
2023/10/24 03:08:45;;;;;;;6.12;3.45;;;;;;;24.00;42.46;99244.81;4484228;32;34794;-64
2023/10/24 03:11:23;;;;;;;7.95;4.35;;;;;;;24.00;42.45;99246.72;4484243;32;34132;-64
2023/10/24 03:13:54;;;;;;;9.95;4.45;;;;;;;23.99;42.44;99255.97;4483036;32;33788;-64
2023/10/24 03:16:22;;;;;;;6.50;3.72;;;;;;;23.98;42.38;99251.59;4483007;32;34151;-64
2023/10/24 03:18:50;;;;;;;6.68;3.83;;;;;;;23.97;42.40;99233.56;4484536;32;34182;-64
2023/10/24 03:21:20;;;;;;;8.63;3.87;;;;;;;23.98;42.40;99217.00;4484166;32;33349;-64
2023/10/24 03:23:48;;;;;;;7.93;4.00;;;;;;;23.98;42.43;99200.66;4484370;32;33507;-64
2023/10/24 03:26:15;;;;;;;8.55;4.43;;;;;;;23.98;42.47;99211.56;4484087;32;33969;-65
2023/10/24 03:28:44;;;;;;;9.63;3.83;;;;;;;23.96;42.40;99230.03;4484120;32;34902;-64
2023/10/24 03:31:12;;;;;;;6.12;3.85;;;;;;;23.97;42.35;99244.47;4484043;32;33346;-64
2023/10/24 03:33:40;;;;;;;7.47;3.83;;;;;;;23.97;42.26;99249.94;4484320;32;33953;-64
2023/10/24 03:36:13;;;;;;;5.90;3.42;;;;;;;23.96;42.33;99248.28;4483973;32;34812;-64
2023/10/24 03:38:41;;;;;;;6.85;3.70;;;;;;;23.95;42.29;99247.47;4483169;32;33871;-64
2023/10/24 03:41:08;;;;;;;5.35;3.20;;;;;;;23.96;42.29;99272.81;4484090;32;34412;-64
2023/10/24 03:43:35;;;;;;;7.82;3.30;;;;;;;23.96;42.18;99275.53;4484007;32;34300;-64
2023/10/24 03:46:06;;;;;;;7.62;3.30;;;;;;;23.95;42.30;99271.97;4483864;32;33931;-64
2023/10/24 03:48:34;;;;;;;7.15;3.45;;;;;;;23.94;42.42;99259.44;4483511;32;34307;-64
2023/10/24 03:51:01;;;;;;;5.55;3.62;;;;;;;23.96;42.55;99261.91;4483904;32;33600;-64
2023/10/24 03:53:29;;;;;;;6.25;3.80;;;;;;;23.95;42.39;99261.06;4483906;32;33791;-64
2023/10/24 03:56:00;;;;;;;10.38;3.65;;;;;;;23.95;42.44;99263.81;4483806;32;33966;-64
2023/10/24 03:58:28;;;;;;;5.97;3.50;;;;;;;23.95;42.46;99252.91;4470035;32;33721;-64
2023/10/24 04:00:59;;;;;;;7.68;3.83;;;;;;;23.94;42.41;99240.34;4483861;32;33205;-64
2023/10/24 04:03:26;;;;;;;5.93;3.42;;;;;;;23.93;42.44;99242.25;4470029;32;32875;-64
2023/10/24 04:05:54;;;;;;;6.57;4.12;;;;;;;23.93;42.28;99241.44;4483567;32;34749;-64
2023/10/24 04:08:21;;;;;;;6.50;3.83;;;;;;;23.93;42.42;99233.25;4483772;32;34291;-64
2023/10/24 04:10:49;;;;;;;7.90;3.72;;;;;;;23.92;42.28;99235.16;4483699;32;34596;-64
2023/10/24 04:13:17;;;;;;;6.85;4.10;;;;;;;23.92;42.17;99226.13;4483456;32;33879;-64
2023/10/24 04:15:44;;;;;;;7.12;3.95;;;;;;;23.92;42.42;99231.59;4483677;32;34896;-64
2023/10/24 04:18:12;;;;;;;7.62;3.53;;;;;;;23.92;42.40;99237.03;4483647;32;33942;-64
2023/10/24 04:20:41;;;;;;;6.80;3.50;;;;;;;23.91;42.51;99229.94;4483312;32;33656;-65
2023/10/24 04:23:12;;;;;;;8.63;3.97;;;;;;;23.92;42.57;99231.59;4483951;32;33622;-64
2023/10/24 04:25:40;;;;;;;8.48;3.78;;;;;;;23.91;42.47;99221.75;4483518;32;34694;-64
2023/10/24 04:28:07;;;;;;;7.35;3.92;;;;;;;23.92;42.65;99223.41;4482301;32;34149;-64
2023/10/24 04:30:39;;;;;;;8.77;3.87;;;;;;;23.90;42.59;99231.84;4483347;32;34404;-64
2023/10/24 04:33:08;;;;;;;8.75;3.50;;;;;;;23.91;42.71;99240.84;4483444;32;34083;-64
2023/10/24 04:35:47;;;;;;;7.65;3.53;;;;;;;23.90;42.50;99245.47;4483289;32;33652;-64
2023/10/24 04:38:15;;;;;;;10.73;3.90;;;;;;;23.91;42.66;99238.09;4469514;32;34432;-64
2023/10/24 04:40:43;;;;;;;7.05;3.35;;;;;;;23.91;42.43;99246.28;4482126;32;33914;-65
2023/10/24 04:43:10;;;;;;;7.87;3.03;;;;;;;23.90;42.40;99263.72;4481963;32;33522;-65
2023/10/24 04:45:38;;;;;;;7.60;3.62;;;;;;;23.89;42.32;99253.87;4483059;32;33983;-64
2023/10/24 04:48:06;;;;;;;6.43;3.10;;;;;;;23.89;42.15;99256.59;4482160;32;34775;-64
2023/10/24 04:50:40;;;;;;;6.18;3.40;;;;;;;23.89;42.03;99240.25;4485207;32;33669;-64
2023/10/24 04:53:08;;;;;;;5.93;3.42;;;;;;;23.88;41.98;99242.16;4485331;32;33771;-64
2023/10/24 04:55:35;;;;;;;8.15;3.45;;;;;;;23.88;41.90;99241.34;4485151;32;34498;-64
2023/10/24 04:58:03;;;;;;;7.75;3.17;;;;;;;23.88;41.93;99230.44;4485316;32;34273;-64
2023/10/24 05:00:31;;;;;;;8.02;3.87;;;;;;;23.87;41.86;99226.88;4485213;32;34153;-64
2023/10/24 05:02:59;;;;;;;9.27;3.45;;;;;;;23.86;41.70;99230.66;4485386;32;34587;-64
2023/10/24 05:05:27;;;;;;;8.50;3.30;;;;;;;23.86;41.84;99230.66;4483986;32;34984;-64
2023/10/24 05:07:55;;;;;;;7.75;4.20;;;;;;;23.85;41.76;99244.53;4485114;32;34264;-64
2023/10/24 05:10:23;;;;;;;6.28;3.28;;;;;;;23.86;41.75;99235.28;4485367;32;33642;-64
2023/10/24 05:12:51;;;;;;;5.80;3.42;;;;;;;23.85;41.63;99236.38;4485222;32;34031;-64
2023/10/24 05:15:19;;;;;;;5.30;3.25;;;;;;;23.85;41.60;99230.91;4482401;32;34903;-64
2023/10/24 05:17:46;;;;;;;6.95;3.62;;;;;;;23.86;41.75;99235.28;4484553;32;34797;-65
2023/10/24 05:20:17;;;;;;;6.62;3.85;;;;;;;23.84;41.91;99238.25;4484724;32;33349;-64
2023/10/24 05:22:44;;;;;;;7.85;3.70;;;;;;;23.84;41.81;99227.38;4484616;32;33802;-66
2023/10/24 05:25:12;;;;;;;6.62;3.47;;;;;;;23.84;41.82;99227.38;4485148;32;34884;-66
2023/10/24 05:27:40;;;;;;;6.85;3.50;;;;;;;23.85;41.60;99233.63;4484907;32;34121;-66
2023/10/24 05:30:10;;;;;;;6.90;3.20;;;;;;;23.86;41.65;99230.66;4483831;32;32935;-69
2023/10/24 05:32:37;;;;;;;7.60;3.62;;;;;;;23.85;41.75;99220.84;4484609;32;34024;-67
2023/10/24 05:35:05;;;;;;;9.35;3.37;;;;;;;23.85;41.76;99229.00;4483808;32;33921;-68
2023/10/24 05:37:33;;;;;;;10.18;3.97;;;;;;;23.84;41.83;99232.00;4484800;32;34103;-70
2023/10/24 05:40:01;;;;;;;9.10;3.53;;;;;;;23.84;41.78;99234.72;4485287;32;33398;-68
2023/10/24 05:42:28;;;;;;;7.82;3.30;;;;;;;23.83;41.81;99228.44;4485055;32;34295;-66
2023/10/24 05:44:56;;;;;;;7.40;3.45;;;;;;;23.83;41.89;99224.91;4470636;32;34060;-67
2023/10/24 05:47:23;;;;;;;6.55;3.62;;;;;;;23.82;41.96;99220.50;4485147;32;34170;-69
2023/10/24 05:49:51;;;;;;;9.80;3.50;;;;;;;23.81;42.14;99219.66;4484772;32;34006;-69
2023/10/24 05:52:19;;;;;;;7.60;3.87;;;;;;;23.82;41.97;99225.94;4484367;32;34850;-68
2023/10/24 05:54:46;;;;;;;15.88;4.05;;;;;;;23.81;42.07;99241.47;4470387;32;32867;-68
2023/10/24 05:57:13;;;;;;;13.90;3.45;;;;;;;23.82;42.36;99242.28;4483148;32;33919;-69
2023/10/24 05:59:41;;;;;;;13.32;4.30;;;;;;;23.83;42.32;99233.06;4482021;32;33470;-68
2023/10/24 06:02:09;;;;;;;14.60;4.07;;;;;;;23.82;42.41;99229.50;4483500;32;33507;-67
2023/10/24 06:04:37;;;;;;;17.02;4.50;;;;;;;23.82;42.21;99234.94;4482148;32;34039;-65
2023/10/24 06:07:08;;;;;;;10.55;4.30;;;;;;;23.81;41.98;99246.91;4484649;32;35104;-66
2023/10/24 06:09:35;;;;;;;10.60;4.28;;;;;;;23.81;41.88;99255.09;4483469;32;33731;-69
2023/10/24 06:12:03;;;;;;;12.45;4.65;;;;;;;23.81;41.70;99246.09;4484321;32;33979;-68
2023/10/24 06:14:32;;;;;;;8.63;4.85;;;;;;;23.80;41.42;99258.06;4484551;32;34915;-67
2023/10/24 06:17:00;;;;;;;11.60;4.90;;;;;;;23.78;40.91;99260.19;4480699;32;34656;-66
2023/10/24 06:19:28;;;;;;;10.85;4.78;;;;;;;23.79;40.66;99256.41;4466429;32;32536;-66
2023/10/24 06:21:56;;;;;;;13.88;4.93;;;;;;;23.76;40.72;99249.53;4467121;32;33653;-65
2023/10/24 06:24:25;;;;;;;13.20;4.90;;;;;;;23.77;40.66;99255.81;4468716;32;35401;-65
2023/10/24 06:26:52;;;;;;;9.50;4.10;;;;;;;23.77;40.66;99258.53;4481942;32;34188;-65
2023/10/24 06:29:20;;;;;;;7.80;4.32;;;;;;;23.74;40.74;99251.69;4475940;32;33522;-65
2023/10/24 06:31:47;;;;;;;11.27;4.55;;;;;;;23.74;40.82;99234.53;4482466;32;34373;-65
2023/10/24 06:34:15;;;;;;;11.25;5.28;;;;;;;23.74;40.85;99242.69;4481947;32;34123;-65
2023/10/24 06:36:43;;;;;;;9.10;4.40;;;;;;;23.75;40.85;99250.62;4482039;32;35384;-66
2023/10/24 06:39:10;;;;;;;9.05;4.65;;;;;;;23.74;40.68;99262.59;4484376;32;33228;-65
2023/10/24 06:41:38;;;;;;;9.85;4.43;;;;;;;23.75;40.62;99268.84;4484435;32;34001;-65
2023/10/24 06:44:06;;;;;;;8.27;4.65;;;;;;;23.73;40.65;99252.75;4484542;32;33888;-65
2023/10/24 06:46:33;;;;;;;10.55;5.25;;;;;;;23.73;40.71;99235.56;4484373;32;34790;-65
2023/10/24 06:49:01;;;;;;;12.13;4.93;;;;;;;23.72;40.69;99248.38;4484642;32;34513;-66
2023/10/24 06:51:29;;;;;;;8.38;4.47;;;;;;;23.73;40.73;99249.19;4483449;32;35354;-65
2023/10/24 06:53:56;;;;;;;10.60;4.43;;;;;;;23.72;40.75;99234.75;4483155;32;33911;-65
2023/10/24 06:56:24;;;;;;;10.70;4.75;;;;;;;23.72;40.76;99225.75;4484298;32;34755;-65
2023/10/24 06:58:51;;;;;;;12.88;5.45;;;;;;;23.72;40.80;99223.03;4484442;32;33553;-65
2023/10/24 07:01:19;;;;;;;9.73;5.22;;;;;;;23.71;40.83;99226.81;4484530;32;34699;-65
2023/10/24 07:03:47;;;;;;;9.73;5.00;;;;;;;23.70;40.90;99215.09;4484277;32;34722;-65
2023/10/24 07:06:15;;;;;;;7.65;4.82;;;;;;;23.71;40.90;99218.66;4484409;32;35017;-65
2023/10/24 07:08:42;;;;;;;8.05;5.20;;;;;;;23.71;40.91;99226.81;4484396;32;33835;-65
2023/10/24 07:11:10;;;;;;;8.82;4.80;;;;;;;23.70;40.98;99217.81;4484152;32;34025;-65
2023/10/24 07:13:41;;;;;;;7.82;5.00;;;;;;;23.70;40.99;99225.19;4484306;32;34158;-65
2023/10/24 07:16:15;;;;;;;10.80;4.90;;;;;;;23.70;40.96;99236.06;4484344;32;34571;-65
2023/10/24 07:18:43;;;;;;;9.52;5.45;;;;;;;23.71;41.02;99224.09;4484170;32;34529;-65
2023/10/24 07:21:11;;;;;;;8.90;5.55;;;;;;;23.68;41.05;99218.06;4484246;32;33973;-65
2023/10/24 07:23:39;;;;;;;7.47;5.18;;;;;;;23.69;41.08;99229.81;4484218;32;34033;-65
2023/10/24 07:26:07;;;;;;;9.75;5.20;;;;;;;23.67;41.08;99213.69;4483571;32;34992;-66
2023/10/24 07:28:34;;;;;;;7.93;5.55;;;;;;;23.68;41.12;99214.50;4483946;32;34391;-65
2023/10/24 07:31:02;;;;;;;9.38;5.75;;;;;;;23.68;41.14;99218.06;4484151;32;33593;-66
2023/10/24 07:33:30;;;;;;;11.10;5.78;;;;;;;23.67;41.15;99227.28;4484170;32;33717;-65
2023/10/24 07:36:07;;;;;;;8.70;5.22;;;;;;;23.68;41.16;99225.41;4484129;32;34158;-65
2023/10/24 07:38:34;;;;;;;9.82;5.30;;;;;;;23.68;41.18;99226.22;4483946;32;33618;-65
2023/10/24 07:41:03;;;;;;;7.93;5.50;;;;;;;23.67;41.20;99210.97;4484152;32;34824;-65
2023/10/24 07:43:31;;;;;;;8.27;5.18;;;;;;;23.67;41.23;99210.97;4484108;32;33879;-65
2023/10/24 07:46:00;;;;;;;8.90;5.10;;;;;;;23.66;41.24;99198.41;4482975;32;34155;-65
2023/10/24 07:48:28;;;;;;;7.28;4.87;;;;;;;23.66;41.25;99201.13;4482695;32;32384;-65
2023/10/24 07:50:56;;;;;;;9.38;4.93;;;;;;;23.65;41.26;99202.22;4477136;32;212619;-66
2023/10/24 07:53:25;;;;;;;7.85;4.97;;;;;;;23.65;41.27;99199.50;4469778;32;34689;-65
2023/10/24 07:55:52;;;;;;;8.70;5.57;;;;;;;23.66;41.26;99203.03;4468665;32;34840;-65
2023/10/24 07:58:20;;;;;;;8.77;4.65;;;;;;;23.65;41.29;99199.50;4482440;32;33232;-65
2023/10/24 08:00:48;;;;;;;9.27;4.60;;;;;;;23.66;41.29;99184.78;4482561;32;33980;-65
2023/10/24 08:03:16;;;;;;;7.85;4.50;;;;;;;23.66;41.29;99184.78;4469788;32;34085;-65
2023/10/24 08:05:44;;;;;;;7.87;4.72;;;;;;;23.65;41.32;99190.50;4484022;32;34284;-65
2023/10/24 08:08:12;;;;;;;8.82;4.60;;;;;;;23.65;41.33;99194.03;4483814;32;33402;-65
2023/10/24 08:10:42;;;;;;;7.53;4.20;;;;;;;23.64;41.33;99203.28;4483526;32;33975;-65
2023/10/24 08:13:09;;;;;;;9.13;5.00;;;;;;;23.66;41.33;99198.41;4483663;32;33684;-65
2023/10/24 08:15:37;;;;;;;8.55;4.70;;;;;;;23.65;41.37;99201.37;4483728;32;34011;-65
2023/10/24 08:18:04;;;;;;;8.48;4.75;;;;;;;23.65;41.37;99195.94;4482719;32;33849;-64
2023/10/24 08:20:32;;;;;;;8.32;4.22;;;;;;;23.65;41.37;99193.22;4482866;32;33801;-64
2023/10/24 08:22:59;;;;;;;9.13;4.57;;;;;;;23.65;41.38;99196.75;4483689;32;33934;-65
2023/10/24 08:25:27;;;;;;;9.18;4.75;;;;;;;23.65;41.41;99212.28;4484691;32;34340;-65
2023/10/24 08:27:55;;;;;;;6.78;4.68;;;;;;;23.64;41.42;99200.56;4479113;32;33208;-66
2023/10/24 08:30:22;;;;;;;7.60;4.40;;;;;;;23.64;41.43;99199.72;4485492;32;33722;-65
2023/10/24 08:32:50;;;;;;;7.40;4.30;;;;;;;23.64;41.45;99195.13;4485393;32;33993;-64
2023/10/24 08:35:18;;;;;;;8.13;4.32;;;;;;;23.64;41.44;99200.56;4485385;32;34051;-65
2023/10/24 08:37:45;;;;;;;8.70;4.62;;;;;;;23.64;41.47;99195.13;4485486;32;33770;-65
2023/10/24 08:40:13;;;;;;;9.75;4.90;;;;;;;23.64;41.51;99195.13;4485189;32;33777;-65
2023/10/24 08:42:41;;;;;;;8.38;4.22;;;;;;;23.64;41.52;99191.53;4462284;32;33867;-65
2023/10/24 08:45:10;;;;;;;7.50;4.25;;;;;;;23.64;41.53;99197.84;4485082;32;34737;-63
2023/10/24 08:47:37;;;;;;;7.93;4.40;;;;;;;23.63;41.54;99195.31;4485165;32;33687;-63
2023/10/24 08:50:06;;;;;;;7.05;4.40;;;;;;;23.64;41.52;99197.84;4483806;32;34760;-66
2023/10/24 08:52:34;;;;;;;8.10;4.27;;;;;;;23.64;41.56;99189.66;4485241;32;34651;-65
2023/10/24 08:55:06;;;;;;;8.77;4.65;;;;;;;23.64;41.55;99186.09;4484607;32;34546;-65
2023/10/24 08:57:37;;;;;;;7.82;4.70;;;;;;;23.63;41.59;99187.97;4484757;32;33770;-65
2023/10/24 09:00:07;;;;;;;7.55;3.78;;;;;;;23.64;41.62;99186.09;4468463;32;33644;-65
2023/10/24 09:02:35;;;;;;;;;;;;;;;23.63;41.62;99184.41;4456167;32;34460;-65
2023/10/24 09:05:03;;;;;;;6.65;4.00;;;;;;;23.73;41.46;99178.37;4468647;32;35363;-65
2023/10/24 09:07:31;;;;;;;7.57;4.57;;;;;;;23.66;41.56;99175.81;4455604;32;33689;-65
2023/10/24 09:09:59;;;;;;;8.88;4.30;;;;;;;23.63;41.67;99166.19;4469548;32;33746;-65
2023/10/24 09:12:29;;;;;;;7.45;4.03;;;;;;;23.62;41.68;99164.53;4469415;32;33718;-65
2023/10/24 09:14:58;;;;;;;6.15;3.70;;;;;;;23.62;41.73;99144.62;4468347;32;34267;-65
2023/10/24 09:17:26;;;;;;;8.27;3.92;;;;;;;23.62;41.73;99141.91;4468219;32;33650;-65
2023/10/24 09:19:56;;;;;;;7.55;4.30;;;;;;;23.62;41.74;99140.00;4455919;32;33759;-65
2023/10/24 09:22:26;;;;;;;10.15;4.57;;;;;;;23.63;41.76;99133.50;4469596;32;33739;-65
2023/10/24 09:24:55;;;;;;;7.28;4.15;;;;;;;23.61;41.79;99130.19;4482735;32;34064;-65
2023/10/24 09:27:25;;;;;;;9.35;4.50;;;;;;;23.62;41.80;99137.28;4485163;32;33063;-64
2023/10/24 09:29:52;;;;;;;8.32;3.87;;;;;;;23.61;41.81;99138.38;4482994;32;33928;-64
2023/10/24 09:32:20;;;;;;;8.25;4.25;;;;;;;23.63;41.78;99146.28;4484922;32;33754;-64
2023/10/24 09:34:48;;;;;;;8.10;4.43;;;;;;;23.62;41.80;99142.75;4484156;32;33887;-64
2023/10/24 09:37:16;;;;;;;9.95;4.82;;;;;;;23.63;41.86;99149.84;4485175;32;34335;-64
2023/10/24 09:39:55;;;;;;;7.37;3.70;;;;;;;23.62;41.88;99159.06;4484871;32;34800;-65
2023/10/24 09:42:26;;;;;;;6.45;4.10;;;;;;;23.63;41.85;99152.56;4484993;32;33571;-65
2023/10/24 09:45:01;;;;;;;10.20;4.37;;;;;;;23.64;41.89;99154.25;4483660;32;33966;-65
2023/10/24 09:47:31;;;;;;;6.70;4.07;;;;;;;23.63;41.92;99143.56;4483686;32;32415;-65
2023/10/24 09:49:59;;;;;;;7.10;4.15;;;;;;;23.63;41.91;99151.72;4484754;32;33874;-65
2023/10/24 09:52:29;;;;;;;9.13;4.47;;;;;;;23.63;41.97;99157.19;4483550;32;33605;-65
2023/10/24 09:54:58;;;;;;;7.33;3.97;;;;;;;23.63;41.91;99154.44;4484641;32;34268;-65
2023/10/24 09:57:26;;;;;;;6.85;4.20;;;;;;;23.63;41.94;99133.50;4483355;32;33633;-65
2023/10/24 09:59:57;;;;;;;5.70;3.83;;;;;;;23.63;41.98;99119.88;4485121;32;34002;-65
2023/10/24 10:02:25;;;;;;;7.50;3.67;;;;;;;23.64;42.01;99140.66;4470999;32;33773;-65
2023/10/24 10:04:54;;;;;;;6.40;3.60;;;;;;;23.63;42.01;99135.41;4484692;32;34873;-65
2023/10/24 10:07:22;;;;;;;6.93;3.83;;;;;;;23.64;41.99;99120.72;4484814;32;34400;-65
2023/10/24 10:09:51;;;;;;;8.05;3.70;;;;;;;23.63;42.02;99114.44;4471018;32;33948;-65
2023/10/24 10:12:19;;;;;;;7.00;4.28;;;;;;;23.63;42.11;99110.88;4475188;32;33898;-64
2023/10/24 10:15:06;;;;;;;7.87;3.62;;;;;;;23.65;42.10;99098.72;4484777;32;33756;-65
2023/10/24 10:17:52;;;;;;;7.53;4.25;;;;;;;23.64;42.10;99083.44;4484493;32;33635;-65
2023/10/24 10:20:28;;;;;;;8.30;3.20;;;;;;;23.64;42.12;99069.84;4484792;32;34109;-64
2023/10/24 10:23:05;;;;;;;5.35;3.22;;;;;;;23.63;42.11;99072.75;4470774;32;33593;-65
2023/10/24 10:25:38;;;;;;;6.05;3.28;;;;;;;23.64;42.16;99079.88;4484991;32;34184;-64
2023/10/24 10:28:15;;;;;;;6.22;3.10;;;;;;;23.62;42.09;99082.81;4484472;32;33324;-65
2023/10/24 10:31:06;;;;;;;6.05;2.80;;;;;;;23.63;42.10;99078.19;4470745;32;33504;-65
2023/10/24 10:33:57;;;;;;;9.00;3.30;;;;;;;23.62;42.03;99076.56;4461365;32;33819;-65
2023/10/24 10:36:25;;;;;;;6.25;3.80;;;;;;;23.64;42.03;99074.44;4458517;32;33841;-65
2023/10/24 10:38:59;;;;;;;6.95;3.53;;;;;;;23.61;42.08;99067.56;4484887;32;33601;-65
2023/10/24 10:41:28;;;;;;;4.97;2.70;;;;;;;23.62;42.13;99060.22;4471189;32;34626;-66
2023/10/24 10:43:59;;;;;;;5.43;2.85;;;;;;;23.63;42.17;99059.12;4484042;32;33849;-65
2023/10/24 10:46:29;;;;;;;7.80;3.25;;;;;;;23.63;42.15;99062.69;4483205;32;34221;-65
2023/10/24 10:48:59;;;;;;;5.85;3.40;;;;;;;23.63;42.17;99045.53;4484469;32;33591;-65
2023/10/24 10:51:29;;;;;;;6.28;3.35;;;;;;;23.64;42.18;99049.91;4484457;32;33930;-65
2023/10/24 10:54:02;;;;;;;;;;;;;;;23.63;42.24;99059.97;4484804;32;34025;-65
2023/10/24 10:56:31;;;;;;;5.18;2.67;;;;;;;23.72;41.99;99063.13;4470113;32;34091;-65
2023/10/24 10:59:08;;;;;;;9.63;3.50;;;;;;;23.65;42.12;99066.03;4470409;32;34054;-65
2023/10/24 11:02:13;;;;;;;7.40;3.72;;;;;;;23.65;42.21;99076.09;4484349;32;33927;-65
2023/10/24 11:04:40;;;;;;;7.30;3.05;;;;;;;23.64;42.13;99066.25;4484481;32;33972;-65
2023/10/24 11:07:09;;;;;;;4.60;2.55;;;;;;;23.62;42.26;99068.38;4484387;32;33719;-66
2023/10/24 11:09:37;;;;;;;6.12;3.08;;;;;;;23.61;42.22;99067.56;4470389;32;33830;-65
2023/10/24 11:12:20;;;;;;;5.20;2.70;;;;;;;23.61;42.24;99066.75;4484075;32;33572;-64
2023/10/24 11:15:06;;;;;;;4.87;3.05;;;;;;;23.63;42.09;99070.84;4484223;32;35417;-65
2023/10/24 11:17:34;;;;;;;4.20;2.15;;;;;;;23.62;42.14;99069.22;4484109;32;35105;-65
2023/10/24 11:20:05;;;;;;;6.87;3.00;;;;;;;23.61;42.19;99077.63;4484322;32;34271;-65
2023/10/24 11:22:50;;;;;;;6.28;2.87;;;;;;;23.60;42.29;99074.09;4484240;32;34490;-65
2023/10/24 11:25:18;;;;;;;5.65;2.40;;;;;;;23.61;42.24;99070.28;4484289;32;34871;-65
2023/10/24 11:27:48;;;;;;;5.87;2.85;;;;;;;23.62;42.23;99057.50;4484333;32;34163;-65
2023/10/24 11:30:16;;;;;;;5.15;2.65;;;;;;;23.61;42.30;99062.13;4469707;32;33756;-65
2023/10/24 11:32:43;;;;;;;5.15;2.53;;;;;;;23.61;42.33;99061.28;4484181;32;33840;-65
2023/10/24 11:35:12;;;;;;;4.85;2.65;;;;;;;23.62;42.26;99055.59;4484271;32;34838;-66
2023/10/24 11:37:40;;;;;;;6.32;2.83;;;;;;;23.62;42.41;99055.59;4484078;32;34254;-65
2023/10/24 11:40:09;;;;;;;6.43;2.95;;;;;;;23.63;42.37;99057.25;4474926;32;34404;-65